Decoded Metar for KNKT (CHERRY POINT in NC, USA) (IATA:NKT) | Meteo·Mobile Aviation Weather
aviador You're here:

KNKT Decoded Metar

CHERRY POINT in NC, USA
Report Time2019-06-17 03:54:00
UTC Time2019-06-17 04:34:40
Flight Rules vfr VFR
Wind200° at 08 kt
W.Decomp.*RWY 23: 7.5 kt HW 2.9 kt LCW
RWY 14: 2.9 kt HW 7.5 kt RCW
Visibility9999 m
Phenomena:N/A
Clouds:N/A
Expected CloudBase > 1,200 ft AGL from Temp-Dew spread
CeilingNone
Temp26°C (ISA +11)
Dew Point23°C (84% RH)
QNH1017 hPa
Density Alt1,542 ft
Elevation30 ft
Report Wrong Elevation
Raw Report
KNKT 170354Z 20008KT 10SM CLR 26/23 A3004 RMK AO2 SLP168
T02560228=

Extra information for KNKT:More info

Metar Taf Metar & Taf Last 4 Metars F.Rules Stats Wind Profile Meteogram Temp Stats Airport Information Weather charts Add Link Nearby VenuesMetar ALERT Operation Metar Decoded Social comments

AIRNAV info for KNKT